createdAt,value
2023-01-15T00:00:00.211Z,5.6
2023-01-15T00:05:00.217Z,5.7
2023-01-15T00:10:00.231Z,5.7
2023-01-15T00:15:00.224Z,5.6
2023-01-15T00:20:00.573Z,5.7
2023-01-15T00:25:00.606Z,5.6
2023-01-15T00:30:00.653Z,5.6
2023-01-15T00:35:00.527Z,5.6
2023-01-15T00:40:00.582Z,5.6
2023-01-15T00:45:00.539Z,5.5
2023-01-15T00:50:00.555Z,5.6
2023-01-15T00:55:00.285Z,5.6
2023-01-15T01:00:00.212Z,5.5
2023-01-15T01:05:00.219Z,5.5
2023-01-15T01:10:00.548Z,5.4
2023-01-15T01:15:00.596Z,5.5
2023-01-15T01:20:00.655Z,5.4
2023-01-15T01:25:00.571Z,5.4
2023-01-15T01:30:00.578Z,5.4
2023-01-15T01:35:00.271Z,5.4
2023-01-15T01:40:00.529Z,5.5
2023-01-15T01:45:00.581Z,5.5
2023-01-15T01:50:00.550Z,5.5
2023-01-15T01:55:00.572Z,5.5
2023-01-15T02:00:00.622Z,5.4
2023-01-15T02:05:00.646Z,5.5
2023-01-15T02:10:00.543Z,5.5
2023-01-15T02:15:00.316Z,5.6
2023-01-15T02:20:00.213Z,5.6
2023-01-15T02:25:00.210Z,5.7
2023-01-15T02:30:00.541Z,5.7
2023-01-15T02:35:00.779Z,5.7
2023-01-15T02:40:00.212Z,5.6
2023-01-15T02:45:00.339Z,5.7
2023-01-15T02:50:00.339Z,5.7
2023-01-15T02:55:00.228Z,5.7
2023-01-15T03:00:00.266Z,5.7
2023-01-15T03:05:00.603Z,5.7
2023-01-15T03:10:00.576Z,5.7
2023-01-15T03:15:00.285Z,5.8
2023-01-15T03:20:00.224Z,5.8
2023-01-15T03:25:00.216Z,5.8
2023-01-15T03:30:00.581Z,5.9
2023-01-15T03:35:00.631Z,5.9
2023-01-15T03:40:00.570Z,5.8
2023-01-15T03:45:00.541Z,5.9
2023-01-15T03:50:00.605Z,5.9
2023-01-15T03:55:00.594Z,5.9
2023-01-15T04:00:00.592Z,6
2023-01-15T04:05:00.310Z,6.1
2023-01-15T04:10:00.249Z,6.2
2023-01-15T04:15:00.287Z,6.2
2023-01-15T04:20:00.227Z,6.3
2023-01-15T04:25:00.239Z,6.4
2023-01-15T04:30:00.229Z,6.4
2023-01-15T04:35:00.223Z,6.4
2023-01-15T04:40:00.630Z,6.5
2023-01-15T04:45:00.544Z,6.5
2023-01-15T04:50:00.559Z,6.6
2023-01-15T04:55:00.692Z,6.5
2023-01-15T05:00:00.637Z,6.6
2023-01-15T05:05:00.602Z,6.5
2023-01-15T05:10:00.622Z,6.5
2023-01-15T05:15:00.636Z,6.5
2023-01-15T05:20:00.556Z,6.5
2023-01-15T05:25:00.569Z,6.5
2023-01-15T05:30:00.327Z,6.4
2023-01-15T05:35:00.217Z,6.4
2023-01-15T05:40:00.248Z,6.4
2023-01-15T05:45:00.639Z,6.4
2023-01-15T05:50:00.604Z,6.5
2023-01-15T05:55:00.289Z,6.6
2023-01-15T06:00:00.218Z,6.7
2023-01-15T06:05:00.221Z,6.8
2023-01-15T06:10:00.216Z,6.7
2023-01-15T06:15:00.234Z,6.8
2023-01-15T06:20:00.599Z,6.8
2023-01-15T06:25:00.573Z,6.8
2023-01-15T06:30:00.308Z,6.9
2023-01-15T06:35:00.217Z,6.9
2023-01-15T06:40:00.216Z,7
2023-01-15T06:45:00.223Z,7.1
2023-01-15T06:50:00.219Z,7.2
2023-01-15T06:55:00.227Z,7.2
2023-01-15T07:00:00.238Z,7.2
2023-01-15T07:05:00.216Z,7.1
2023-01-15T07:10:00.228Z,7
2023-01-15T07:15:00.202Z,6.9
2023-01-15T07:20:00.569Z,7
2023-01-15T07:25:00.324Z,6.9
2023-01-15T07:30:00.291Z,6.9
2023-01-15T07:35:00.226Z,6.8
2023-01-15T07:40:00.253Z,6.8
2023-01-15T07:45:00.216Z,6.9
2023-01-15T07:50:00.221Z,6.9
2023-01-15T07:55:00.557Z,6.8
2023-01-15T08:00:00.303Z,6.9
2023-01-15T08:05:00.626Z,6.9
2023-01-15T08:10:00.626Z,6.9
2023-01-15T08:15:00.566Z,6.8
2023-01-15T08:20:00.612Z,6.9
2023-01-15T08:25:00.590Z,6.9
2023-01-15T08:30:00.590Z,7.1
2023-01-15T08:35:00.562Z,7.1
2023-01-15T08:40:00.554Z,7.1
2023-01-15T08:45:00.592Z,7.1
2023-01-15T08:50:00.553Z,6.8
2023-01-15T08:55:00.579Z,6.5
2023-01-15T09:00:00.552Z,6.4
2023-01-15T09:05:00.608Z,6.4
2023-01-15T09:10:00.565Z,6.3
2023-01-15T09:15:01.915Z,6.2
2023-01-15T09:20:00.542Z,6.1
2023-01-15T09:25:00.579Z,6
2023-01-15T09:30:00.521Z,6.1
2023-01-15T09:35:00.538Z,6
2023-01-15T09:40:00.564Z,6
2023-01-15T09:45:00.560Z,6
2023-01-15T09:50:00.599Z,6
2023-01-15T09:55:00.525Z,5.9
2023-01-15T10:00:00.570Z,5.9
2023-01-15T10:05:00.526Z,5.8
2023-01-15T10:10:00.656Z,5.8
2023-01-15T10:15:00.507Z,5.7
2023-01-15T10:20:00.573Z,5.7
2023-01-15T10:25:00.594Z,5.6
2023-01-15T10:30:00.587Z,5.6
2023-01-15T10:35:00.550Z,5.6
2023-01-15T10:40:00.579Z,5.6
2023-01-15T10:45:00.548Z,5.6
2023-01-15T10:50:00.604Z,5.6
2023-01-15T10:55:00.519Z,5.6
2023-01-15T11:00:00.591Z,5.6
2023-01-15T11:05:00.539Z,5.5
2023-01-15T11:10:00.610Z,5.5
2023-01-15T11:15:00.539Z,5.5
2023-01-15T11:20:00.543Z,5.4
2023-01-15T11:25:00.559Z,5.4
2023-01-15T11:30:00.596Z,5.4
2023-01-15T11:35:00.524Z,5.4
2023-01-15T11:40:00.567Z,5.4
2023-01-15T11:45:00.539Z,5.4
2023-01-15T11:50:00.557Z,5.4
2023-01-15T11:55:00.597Z,5.4
2023-01-15T12:00:00.546Z,5.3
2023-01-15T12:05:00.544Z,5.3
2023-01-15T12:10:00.552Z,5.3
2023-01-15T12:15:00.582Z,5.3
2023-01-15T12:20:00.572Z,5.3
2023-01-15T12:25:00.543Z,5.2
2023-01-15T12:30:00.567Z,5.2
2023-01-15T12:35:00.543Z,5.3
2023-01-15T12:40:00.597Z,5.3
2023-01-15T12:45:00.527Z,5.3
2023-01-15T12:50:00.615Z,5.2
2023-01-15T12:55:00.584Z,5.2
2023-01-15T13:00:00.561Z,5.2
2023-01-15T13:05:00.604Z,5.2
2023-01-15T13:10:00.563Z,5.2
2023-01-15T13:15:00.436Z,5.2
2023-01-15T13:20:00.525Z,5.2
2023-01-15T13:25:00.558Z,5.2
2023-01-15T13:30:00.537Z,5.2
2023-01-15T13:35:00.557Z,5.2
2023-01-15T13:40:00.583Z,5.2
2023-01-15T13:45:00.588Z,5.2
2023-01-15T13:50:00.531Z,5.2
2023-01-15T13:55:00.530Z,5.2
2023-01-15T14:00:00.558Z,5.2
2023-01-15T14:05:00.540Z,5.2
2023-01-15T14:10:00.500Z,5.2
2023-01-15T14:15:00.545Z,5.2
2023-01-15T14:20:00.538Z,5.2
2023-01-15T14:25:00.550Z,5.2
2023-01-15T14:30:00.475Z,5.2
2023-01-15T14:35:00.533Z,5.2
2023-01-15T14:40:00.521Z,5.2
2023-01-15T14:45:00.554Z,5.2
2023-01-15T14:50:00.566Z,5.2
2023-01-15T14:55:00.592Z,5.2
2023-01-15T15:00:00.508Z,5.2
2023-01-15T15:05:00.478Z,5.2
2023-01-15T15:10:00.547Z,5.2
2023-01-15T15:15:00.556Z,5.2
2023-01-15T15:20:00.652Z,5.2
2023-01-15T15:25:00.530Z,5.2
2023-01-15T15:30:00.579Z,5.2
2023-01-15T15:35:00.599Z,5.2
2023-01-15T15:40:00.543Z,5.2
2023-01-15T15:45:00.580Z,5.1
2023-01-15T15:50:00.611Z,5.1
2023-01-15T15:55:00.550Z,5
2023-01-15T16:00:00.592Z,4.9
2023-01-15T16:05:00.556Z,4.9
2023-01-15T16:10:00.628Z,4.9
2023-01-15T16:15:00.549Z,4.8
2023-01-15T16:20:00.546Z,4.8
2023-01-15T16:25:00.509Z,4.7
2023-01-15T16:30:00.584Z,4.7
2023-01-15T16:35:00.672Z,4.7
2023-01-15T16:40:00.513Z,4.6
2023-01-15T16:45:00.618Z,4.6
2023-01-15T16:50:00.517Z,4.6
2023-01-15T16:55:00.523Z,4.6
2023-01-15T17:00:00.627Z,4.6
2023-01-15T17:05:00.576Z,4.6
2023-01-15T17:10:00.553Z,4.6
2023-01-15T17:15:00.567Z,4.5
2023-01-15T17:20:00.652Z,4.5
2023-01-15T17:25:00.576Z,4.5
2023-01-15T17:30:00.523Z,4.5
2023-01-15T17:35:00.702Z,4.5
2023-01-15T17:40:00.563Z,4.4
2023-01-15T17:45:00.615Z,4.4
2023-01-15T17:50:00.562Z,4.4
2023-01-15T17:55:00.561Z,4.4
2023-01-15T18:00:00.577Z,4.4
2023-01-15T18:05:00.647Z,4.4
2023-01-15T18:10:00.646Z,4.3
2023-01-15T18:15:00.669Z,4.4
2023-01-15T18:20:00.594Z,4.4
2023-01-15T18:25:00.604Z,4.4
2023-01-15T18:30:00.658Z,4.4
2023-01-15T18:35:00.549Z,4.3
2023-01-15T18:40:00.504Z,4.4
2023-01-15T18:45:00.539Z,4.4
2023-01-15T18:50:00.630Z,4.3
2023-01-15T18:55:00.586Z,4.3
2023-01-15T19:00:00.570Z,4.3
2023-01-15T19:05:00.612Z,4.3
2023-01-15T19:10:00.558Z,4.3
2023-01-15T19:15:00.764Z,4.3
2023-01-15T19:20:00.613Z,4.2
2023-01-15T19:25:00.624Z,4.2
2023-01-15T19:30:00.566Z,4.2
2023-01-15T19:35:00.580Z,4.2
2023-01-15T19:40:00.612Z,4.2
2023-01-15T19:45:00.641Z,4.3
2023-01-15T19:50:00.595Z,4.3
2023-01-15T19:55:00.550Z,4.2
2023-01-15T20:00:00.509Z,4.2
2023-01-15T20:05:00.618Z,4.2
2023-01-15T20:10:00.579Z,4.2
2023-01-15T20:15:00.530Z,4.2
2023-01-15T20:20:00.510Z,4.2
2023-01-15T20:25:00.658Z,4.2
2023-01-15T20:30:00.479Z,4.2
2023-01-15T20:35:00.591Z,4.2
2023-01-15T20:40:00.662Z,4.3
2023-01-15T20:45:00.609Z,4.3
2023-01-15T20:50:00.560Z,4.3
2023-01-15T20:55:00.547Z,4.3
2023-01-15T21:00:00.553Z,4.3
2023-01-15T21:05:00.656Z,4.3
2023-01-15T21:10:00.556Z,4.4
2023-01-15T21:15:00.591Z,4.5
2023-01-15T21:20:00.532Z,4.5
2023-01-15T21:25:00.593Z,4.5
2023-01-15T21:30:00.577Z,4.4
2023-01-15T21:35:00.603Z,4.4
2023-01-15T21:40:00.647Z,4.4
2023-01-15T21:45:00.597Z,4.5
2023-01-15T21:55:00.586Z,4.5
2023-01-15T22:00:00.635Z,4.4
2023-01-15T22:05:00.557Z,4.3
2023-01-15T22:10:00.611Z,4.3
2023-01-15T22:15:00.600Z,4.3
2023-01-15T22:20:00.564Z,4.4
2023-01-15T22:25:00.527Z,4.4
2023-01-15T22:30:00.596Z,4.4
2023-01-15T22:35:00.627Z,4.4
2023-01-15T22:40:00.703Z,4.4
2023-01-15T22:45:00.897Z,4.4
2023-01-15T22:50:00.627Z,4.4
2023-01-15T22:55:00.657Z,4.4
2023-01-15T23:00:00.627Z,4.4
2023-01-15T23:05:00.613Z,4.3
2023-01-15T23:10:00.602Z,4.4
2023-01-15T23:15:00.627Z,4.4
2023-01-15T23:20:00.562Z,4.3
2023-01-15T23:25:00.717Z,4.2
2023-01-15T23:30:00.570Z,4.2
2023-01-15T23:35:00.558Z,4.1
2023-01-15T23:40:00.616Z,4.1
2023-01-15T23:45:00.598Z,4
2023-01-15T23:50:00.578Z,4.1
2023-01-15T23:55:00.572Z,4
